Time;durP1;ratioP1;P1;durP2;ratioP2;P2;SDS_P1;SDS_P2;PMS_P1;PMS_P2;Temp;Humidity;BMP_temperature;BMP_pressure;BME280_temperature;BME280_humidity;BME280_pressure;Samples;Min_cycle;Max_cycle;Signal;HPM_P1;HPM_P2
2021/12/25 00:01:06;;;;;;;2.25;0.57;;;-3274.80;70.90;;;;;;5112775;28;20537;-43
2021/12/25 00:03:37;;;;;;;2.33;0.40;;;-3274.70;70.80;;;;;;5103567;28;20032;-45
2021/12/25 00:06:05;;;;;;;3.72;1.65;;;-3274.80;70.90;;;;;;5077145;28;20025;-44
2021/12/25 00:08:31;;;;;;;0.45;0.30;;;-3274.80;71.60;;;;;;5083858;28;20051;-44
2021/12/25 00:11:04;;;;;;;1.65;0.40;;;-3274.70;72.50;;;;;;5114489;28;20026;-45
2021/12/25 00:13:31;;;;;;;3.45;0.75;;;-3274.70;73.20;;;;;;5114701;28;20036;-48
2021/12/25 00:15:58;;;;;;;1.48;0.40;;;-3274.70;73.40;;;;;;5115050;28;20477;-43
2021/12/25 00:18:25;;;;;;;1.20;0.50;;;-3274.60;73.60;;;;;;5092527;28;20050;-44
2021/12/25 00:20:52;;;;;;;4.95;0.55;;;-3274.70;73.10;;;;;;5114734;28;20024;-47
2021/12/25 00:23:18;;;;;;;1.92;0.63;;;-3274.60;72.20;;;;;;5104462;28;20036;-46
2021/12/25 00:25:50;;;;;;;3.15;0.65;;;-3274.50;72.60;;;;;;5080679;28;20024;-49
2021/12/25 00:28:37;;;;;;;2.38;1.00;;;-3274.60;71.90;;;;;;5109021;28;20028;-43
2021/12/25 00:31:42;;;;;;;6.35;0.90;;;-3274.60;71.50;;;;;;5108629;28;20043;-45
2021/12/25 00:34:01;;;;;;;3.90;0.90;;;-3274.60;72.70;;;;;;5109344;28;20071;-48
2021/12/25 00:36:28;;;;;;;2.00;0.65;;;-3274.60;71.90;;;;;;5094141;28;20114;-44
2021/12/25 00:38:55;;;;;;;1.30;0.50;;;-3274.60;71.20;;;;;;5107105;28;20052;-46
2021/12/25 00:41:24;;;;;;;1.80;0.50;;;-3274.60;72.20;;;;;;5110856;28;20458;-46
2021/12/25 00:43:51;;;;;;;2.00;0.93;;;-3274.60;72.00;;;;;;5114134;28;20447;-47
2021/12/25 00:46:18;;;;;;;4.63;0.98;;;-3274.60;72.20;;;;;;5113797;28;20434;-47
2021/12/25 00:48:50;;;;;;;1.75;0.60;;;-3274.60;73.00;;;;;;5113334;28;20055;-46
2021/12/25 00:51:18;;;;;;;1.25;0.70;;;-3274.50;73.20;;;;;;5093847;28;20028;-45
2021/12/25 00:53:45;;;;;;;3.70;0.80;;;-3274.40;73.50;;;;;;5103691;28;20032;-47
2021/12/25 00:56:12;;;;;;;2.05;0.90;;;-3274.40;73.20;;;;;;5103347;27;20118;-47
2021/12/25 00:58:39;;;;;;;2.20;1.00;;;-3274.40;73.90;;;;;;5108699;27;20364;-46
2021/12/25 01:01:05;;;;;;;2.47;0.60;;;-3274.40;73.70;;;;;;5109194;28;20337;-48
2021/12/25 01:03:33;;;;;;;3.25;1.13;;;-3274.40;74.70;;;;;;5096979;28;20449;-45
2021/12/25 01:05:58;;;;;;;7.82;0.68;;;-3274.30;74.70;;;;;;5083274;28;20035;-46
2021/12/25 01:08:25;;;;;;;3.40;1.02;;;-3274.30;74.60;;;;;;5108811;28;20034;-46
2021/12/25 01:10:51;;;;;;;4.57;0.93;;;-3274.30;73.90;;;;;;5109986;28;20032;-44
2021/12/25 01:13:32;;;;;;;3.38;1.10;;;-3274.30;74.40;;;;;;5094103;28;20032;-48
2021/12/25 01:48:26;;;;;;;5.97;0.90;;;-3274.10;74.80;;;;;;5103565;28;20034;-46
2021/12/25 01:50:54;;;;;;;2.40;0.60;;;-3274.10;74.70;;;;;;5095448;28;20387;-47
2021/12/25 01:53:21;;;;;;;1.50;0.80;;;-3274.10;75.20;;;;;;5086315;28;20484;-47
2021/12/25 01:55:50;;;;;;;4.15;1.38;;;-3274.10;75.80;;;;;;5107289;28;20040;-48
2021/12/25 01:58:20;;;;;;;2.22;0.50;;;-3274.10;75.90;;;;;;5118014;28;20035;-50
2021/12/25 02:00:51;;;;;;;3.25;0.60;;;-3274.10;76.00;;;;;;5104159;28;20028;-48
2021/12/25 02:03:20;;;;;;;3.33;0.73;;;-3274.00;76.20;;;;;;5103129;28;20044;-46
2021/12/25 02:05:46;;;;;;;3.45;0.70;;;-3274.10;76.50;;;;;;5093020;28;20536;-46
2021/12/25 02:08:12;;;;;;;1.17;0.68;;;-3274.10;76.50;;;;;;5110974;28;20118;-45
2021/12/25 02:10:39;;;;;;;5.70;1.00;;;-3273.90;76.70;;;;;;5095615;28;20073;-44
2021/12/25 02:13:09;;;;;;;2.45;0.73;;;-3274.00;76.90;;;;;;5106212;28;20048;-46
2021/12/25 02:15:35;;;;;;;;;;;-3273.90;77.00;;;;;;5113935;28;20030;-49
2021/12/25 02:20:57;;;;;;;2.47;0.82;;;-3273.90;77.50;;;;;;5117040;28;20062;-43
2021/12/25 02:23:25;;;;;;;0.80;0.40;;;-3273.90;77.40;;;;;;5116253;28;20444;-45
2021/12/25 02:25:54;;;;;;;1.77;0.60;;;-3273.80;77.50;;;;;;5098807;28;20042;-46
2021/12/25 02:28:22;;;;;;;3.50;0.80;;;-3273.80;77.20;;;;;;5100134;28;20020;-48
2021/12/25 02:30:51;;;;;;;1.63;0.68;;;-3273.80;77.40;;;;;;5111161;28;20475;-46
2021/12/25 02:33:18;;;;;;;;;;;-3273.80;77.50;;;;;;5089549;28;20051;-44
2021/12/25 02:35:46;;;;;;;2.20;0.73;;;-3273.70;77.30;;;;;;5078608;28;20256;-49
2021/12/25 02:38:13;;;;;;;2.15;0.73;;;-3273.80;77.30;;;;;;5085993;28;20844;-45
2021/12/25 02:40:40;;;;;;;5.55;1.17;;;-3273.80;77.20;;;;;;5115142;28;20119;-46
2021/12/25 02:43:07;;;;;;;2.75;0.70;;;-3273.70;76.80;;;;;;5084836;28;20048;-48
2021/12/25 02:45:34;;;;;;;1.65;0.50;;;-3273.70;76.00;;;;;;5059341;28;20366;-46
2021/12/25 02:48:14;;;;;;;4.53;0.80;;;-3273.70;75.10;;;;;;5083266;28;20056;-51
2021/12/25 02:50:41;;;;;;;1.60;0.70;;;-3273.70;75.00;;;;;;5078365;28;20032;-49
2021/12/25 02:53:12;;;;;;;3.55;0.98;;;-3273.80;74.50;;;;;;5088084;28;20060;-49
2021/12/25 02:55:40;;;;;;;1.50;0.60;;;-3273.70;74.10;;;;;;5076816;28;20097;-46
2021/12/25 02:58:07;;;;;;;1.73;0.68;;;-3273.80;74.00;;;;;;5093126;28;20028;-49
2021/12/25 03:00:44;;;;;;;1.65;0.50;;;-3273.80;74.20;;;;;;5066259;28;20111;-47
2021/12/25 03:03:11;;;;;;;3.63;0.80;;;-3273.80;74.50;;;;;;5076807;28;20036;-47
2021/12/25 03:05:37;;;;;;;2.05;0.90;;;-3273.80;74.10;;;;;;5075710;28;20111;-46
2021/12/25 03:08:06;;;;;;;7.63;0.77;;;-3273.80;74.70;;;;;;5065427;28;20048;-48
2021/12/25 03:10:34;;;;;;;2.20;0.90;;;-3273.70;75.00;;;;;;5095451;28;20036;-50
2021/12/25 03:15:49;;;;;;;1.35;0.80;;;-3273.80;75.70;;;;;;5075588;28;20031;-44
2021/12/25 03:18:23;;;;;;;4.43;0.70;;;-3273.80;75.80;;;;;;5083933;28;20024;-46
2021/12/25 03:20:57;;;;;;;2.47;0.60;;;-3273.70;75.20;;;;;;5076571;28;20055;-45
2021/12/25 03:23:25;;;;;;;2.60;0.82;;;-3273.70;75.50;;;;;;5075299;28;20481;-43
2021/12/25 03:25:54;;;;;;;3.60;0.75;;;-3273.70;75.40;;;;;;5075550;28;20035;-47
2021/12/25 03:28:23;;;;;;;1.13;0.60;;;-3273.70;75.40;;;;;;5071144;28;20024;-50
2021/12/25 03:30:51;;;;;;;2.63;1.70;;;-3273.70;75.70;;;;;;5061105;28;20606;-47
2021/12/25 03:33:19;;;;;;;2.05;0.80;;;-3273.60;75.80;;;;;;5084416;28;20074;-47
2021/12/25 03:35:47;;;;;;;1.67;0.63;;;-3273.70;75.60;;;;;;5095744;28;20119;-49
2021/12/25 03:38:19;;;;;;;2.90;0.98;;;-3273.70;75.80;;;;;;5094903;28;20028;-45
2021/12/25 03:40:46;;;;;;;1.52;0.55;;;-3273.70;75.50;;;;;;5075694;28;20453;-47
2021/12/25 03:43:14;;;;;;;1.73;0.57;;;-3273.70;75.80;;;;;;5075471;28;20036;-48
2021/12/25 03:45:41;;;;;;;3.30;1.00;;;-3273.70;75.70;;;;;;5093041;28;20048;-47
2021/12/25 03:48:31;;;;;;;2.90;0.60;;;-3273.80;75.70;;;;;;5086788;28;20020;-47
2021/12/25 03:59:09;;;;;;;4.75;0.57;;;-3273.70;75.70;;;;;;5082511;28;20116;-51
2021/12/25 04:06:44;;;;;;;4.07;0.90;;;-3273.80;74.90;;;;;;5074805;28;20116;-46
2021/12/25 04:09:22;;;;;;;2.55;0.40;;;-3273.80;74.70;;;;;;5082706;28;20032;-46
2021/12/25 04:11:49;;;;;;;2.80;0.60;;;-3273.80;74.70;;;;;;5094908;28;20020;-49
2021/12/25 04:14:17;;;;;;;4.25;0.50;;;-3273.80;74.50;;;;;;5060147;28;20048;-52
2021/12/25 04:16:43;;;;;;;3.47;0.88;;;-3273.80;74.70;;;;;;5074413;28;20418;-50
2021/12/25 04:19:10;;;;;;;2.83;0.73;;;-3273.90;74.30;;;;;;5090014;28;20040;-45
2021/12/25 04:21:42;;;;;;;6.28;0.82;;;-3273.90;74.40;;;;;;5094760;28;20028;-45
2021/12/25 04:24:09;;;;;;;2.53;0.70;;;-3273.80;73.50;;;;;;5078810;28;20029;-47
2021/12/25 04:26:39;;;;;;;3.13;0.60;;;-3273.80;73.50;;;;;;5056461;28;20361;-47
2021/12/25 04:29:21;;;;;;;2.97;0.52;;;-3273.90;73.90;;;;;;5080455;28;20448;-46
2021/12/25 04:32:37;;;;;;;1.65;0.70;;;-3273.90;74.20;;;;;;5094443;28;20024;-46
2021/12/25 05:02:27;;;;;;;3.25;0.90;;;-3273.90;75.00;;;;;;5098734;28;20054;-46
2021/12/25 05:04:49;;;;;;;1.35;0.85;;;-3273.90;75.10;;;;;;5097034;28;20036;-50
2021/12/25 05:07:16;;;;;;;0.95;0.45;;;-3273.80;75.60;;;;;;5114098;28;20028;-46
2021/12/25 05:09:45;;;;;;;4.68;0.50;;;-3273.80;75.40;;;;;;5092223;28;20039;-44
2021/12/25 05:12:12;;;;;;;1.73;0.60;;;-3273.80;75.50;;;;;;5075759;28;20040;-46
2021/12/25 05:14:39;;;;;;;0.63;0.40;;;-3273.80;76.20;;;;;;5105526;28;20114;-46
2021/12/25 05:17:07;;;;;;;5.32;1.23;;;-3273.80;75.80;;;;;;5113939;28;20035;-46
2021/12/25 05:19:36;;;;;;;3.88;0.40;;;-3273.80;75.80;;;;;;5113696;28;20031;-48
2021/12/25 05:22:03;;;;;;;2.15;0.40;;;-3273.80;76.20;;;;;;5113949;28;20051;-50
2021/12/25 05:24:34;;;;;;;2.55;0.50;;;-3273.70;76.00;;;;;;5094355;28;20042;-50
2021/12/25 05:27:02;;;;;;;5.15;0.50;;;-3273.70;76.30;;;;;;5113239;28;20024;-47
2021/12/25 05:29:33;;;;;;;3.33;0.75;;;-3273.70;76.10;;;;;;5111066;28;20034;-45
2021/12/25 05:32:00;;;;;;;0.88;0.43;;;-3273.70;76.00;;;;;;5113164;28;20111;-47
2021/12/25 05:34:27;;;;;;;0.95;0.70;;;-3273.80;76.10;;;;;;5111709;28;20324;-44
2021/12/25 05:36:54;;;;;;;2.47;0.80;;;-3273.80;76.10;;;;;;5095509;28;20097;-47
2021/12/25 05:39:21;;;;;;;2.75;0.63;;;-3273.70;76.10;;;;;;5093047;28;20063;-44
2021/12/25 05:41:50;;;;;;;3.92;0.40;;;-3273.80;76.50;;;;;;5113303;28;20061;-47
2021/12/25 05:44:17;;;;;;;0.82;0.50;;;-3273.80;76.20;;;;;;5103765;28;20020;-46
2021/12/25 05:46:42;;;;;;;0.45;0.30;;;-3273.80;76.40;;;;;;5092963;28;20036;-47
2021/12/25 05:49:12;;;;;;;3.75;0.95;;;-3273.80;76.50;;;;;;5109796;28;20096;-48
2021/12/25 05:51:39;;;;;;;0.95;0.47;;;-3273.80;76.30;;;;;;5112981;28;20032;-47
2021/12/25 05:54:06;;;;;;;3.47;1.02;;;-3273.80;76.30;;;;;;5115876;28;20118;-49
2021/12/25 05:56:34;;;;;;;1.02;0.47;;;-3273.70;76.20;;;;;;5124563;27;20432;-45
2021/12/25 05:59:00;;;;;;;2.17;0.50;;;-3273.80;76.10;;;;;;5110633;27;20075;-47
2021/12/25 06:01:30;;;;;;;0.80;0.50;;;-3273.80;76.30;;;;;;5079220;28;20480;-46
2021/12/25 06:03:56;;;;;;;3.60;0.77;;;-3273.80;76.50;;;;;;5112080;28;20051;-49
2021/12/25 06:06:24;;;;;;;3.83;1.10;;;-3273.70;76.30;;;;;;5101988;28;20040;-44
2021/12/25 06:08:51;;;;;;;6.93;0.70;;;-3273.70;76.50;;;;;;5111360;28;20445;-46
2021/12/25 06:11:18;;;;;;;3.45;0.85;;;-3273.70;76.80;;;;;;5117739;28;20024;-47
2021/12/25 06:13:56;;;;;;;3.28;0.70;;;-3273.70;77.10;;;;;;5087678;28;20028;-48
2021/12/25 06:16:22;;;;;;;3.45;0.63;;;-3273.70;76.80;;;;;;5097124;28;20437;-45
2021/12/25 06:18:49;;;;;;;2.80;0.80;;;-3273.80;76.40;;;;;;5109605;28;20032;-49
2021/12/25 06:21:19;;;;;;;1.50;0.43;;;-3273.80;76.50;;;;;;5099191;28;20032;-47
2021/12/25 06:23:48;;;;;;;1.85;0.40;;;-3273.80;76.40;;;;;;5103591;28;20449;-44
2021/12/25 06:26:17;;;;;;;2.00;0.65;;;-3273.80;76.10;;;;;;5096908;28;20064;-49
2021/12/25 06:28:47;;;;;;;2.15;0.60;;;-3273.90;75.90;;;;;;5100738;28;20036;-45
2021/12/25 06:31:14;;;;;;;2.97;0.55;;;-3273.90;76.30;;;;;;5096938;28;20028;-45
2021/12/25 06:33:41;;;;;;;1.13;0.50;;;-3273.90;76.60;;;;;;5109443;28;20035;-47
2021/12/25 06:36:08;;;;;;;1.45;0.50;;;-3273.90;76.40;;;;;;5117238;28;20440;-45
2021/12/25 06:38:38;;;;;;;4.50;1.02;;;-3273.90;76.60;;;;;;5104478;28;20512;-48
2021/12/25 06:41:04;;;;;;;1.85;0.52;;;-3273.80;76.70;;;;;;5097485;28;20135;-47
2021/12/25 06:43:31;;;;;;;1.73;0.60;;;-3273.80;76.90;;;;;;5116184;28;20194;-46
2021/12/25 06:45:58;;;;;;;1.80;0.60;;;-3273.70;77.50;;;;;;5112408;28;20509;-45
2021/12/25 06:48:26;;;;;;;3.08;1.23;;;-3273.80;77.70;;;;;;5111851;28;20534;-48
2021/12/25 06:50:53;;;;;;;8.55;2.22;;;-3273.70;77.60;;;;;;5098397;28;20438;-46
2021/12/25 06:53:20;;;;;;;3.47;0.70;;;-3273.70;78.10;;;;;;5116628;28;20110;-49
2021/12/25 06:55:47;;;;;;;6.18;0.95;;;-3273.70;77.90;;;;;;5117217;27;20441;-49
2021/12/25 06:58:14;;;;;;;4.10;1.30;;;-3273.80;77.70;;;;;;5124362;27;20071;-45
2021/12/25 07:00:41;;;;;;;5.13;1.00;;;-3273.80;77.90;;;;;;5108177;28;20647;-45
2021/12/25 07:03:08;;;;;;;3.15;0.80;;;-3273.70;77.90;;;;;;5115065;28;20112;-46
2021/12/25 07:05:33;;;;;;;2.10;0.90;;;-3273.70;78.00;;;;;;5115521;28;20456;-46
2021/12/25 07:08:01;;;;;;;2.55;1.13;;;-3273.80;78.00;;;;;;5116060;28;20224;-48
2021/12/25 07:10:28;;;;;;;5.65;1.15;;;-3273.80;78.20;;;;;;5098809;28;20055;-46
2021/12/25 07:12:54;;;;;;;3.40;0.98;;;-3273.80;78.40;;;;;;5109926;28;20043;-46
2021/12/25 07:15:21;;;;;;;3.08;1.00;;;-3273.90;78.20;;;;;;5080335;28;20085;-46
2021/12/25 07:17:50;;;;;;;9.25;1.85;;;-3273.80;78.50;;;;;;5097093;28;20108;-45
2021/12/25 07:20:17;;;;;;;3.08;1.02;;;-3273.80;78.60;;;;;;5115214;28;20035;-46
2021/12/25 07:22:46;;;;;;;4.25;0.90;;;-3273.80;78.70;;;;;;5113839;28;20039;-47
2021/12/25 07:25:13;;;;;;;4.10;2.08;;;-3273.70;78.90;;;;;;5097696;28;20027;-48
2021/12/25 07:27:38;;;;;;;5.35;1.45;;;-3273.70;79.10;;;;;;5080156;28;20040;-46
2021/12/25 07:30:08;;;;;;;4.68;1.25;;;-3273.70;78.80;;;;;;5114358;28;20043;-48
2021/12/25 07:32:34;;;;;;;2.53;0.73;;;-3273.80;78.40;;;;;;5114821;28;20038;-49
2021/12/25 07:35:00;;;;;;;4.88;0.98;;;-3273.70;78.40;;;;;;5115080;28;20028;-49
2021/12/25 07:37:25;;;;;;;4.05;1.38;;;-3273.80;78.70;;;;;;5114233;28;20543;-45
2021/12/25 07:39:51;;;;;;;2.65;0.85;;;-3273.80;78.80;;;;;;5114937;28;20130;-46
2021/12/25 07:42:16;;;;;;;2.40;0.77;;;-3273.70;78.80;;;;;;5096074;28;20047;-46
2021/12/25 07:44:45;;;;;;;1.27;0.75;;;-3273.70;78.80;;;;;;5112635;28;20027;-49
2021/12/25 07:47:15;;;;;;;1.50;1.00;;;-3273.70;79.00;;;;;;5095939;28;20036;-46
2021/12/25 07:49:42;;;;;;;5.50;0.98;;;-3273.70;78.90;;;;;;5099977;28;20425;-46
2021/12/25 07:52:08;;;;;;;8.07;1.23;;;-3273.60;79.30;;;;;;5115030;28;20081;-50
2021/12/25 07:54:35;;;;;;;4.03;0.95;;;-3273.60;78.80;;;;;;5111552;28;20093;-49
2021/12/25 07:57:02;;;;;;;7.20;0.98;;;-3273.50;79.10;;;;;;5081316;27;20019;-47
2021/12/25 07:59:28;;;;;;;3.42;1.02;;;-3273.60;79.20;;;;;;5111107;28;20024;-46
2021/12/25 08:01:56;;;;;;;2.30;0.90;;;-3273.70;78.90;;;;;;5111311;28;20100;-43
2021/12/25 08:04:23;;;;;;;2.15;0.75;;;-3273.70;78.80;;;;;;5113654;28;20079;-46
2021/12/25 08:06:53;;;;;;;3.08;0.80;;;-3273.70;79.20;;;;;;5095526;28;20047;-48
2021/12/25 08:09:28;;;;;;;2.47;0.77;;;-3273.70;79.20;;;;;;5112939;28;20039;-50
2021/12/25 08:11:57;;;;;;;2.92;1.02;;;-3273.80;79.30;;;;;;5110672;28;20035;-47
2021/12/25 08:14:25;;;;;;;5.55;1.52;;;-3273.80;79.30;;;;;;5112883;28;20686;-46
2021/12/25 08:16:57;;;;;;;3.20;0.90;;;-3273.80;79.30;;;;;;5114308;28;20020;-48
2021/12/25 08:19:24;;;;;;;5.30;1.00;;;-3273.80;79.70;;;;;;5109955;27;20031;-47
2021/12/25 08:21:51;;;;;;;4.18;1.15;;;-3273.70;79.70;;;;;;5108405;28;20083;-45
2021/12/25 08:24:18;;;;;;;1.17;0.45;;;-3273.80;79.70;;;;;;5111154;28;20143;-46
2021/12/25 08:26:47;;;;;;;6.22;0.88;;;-3273.80;79.70;;;;;;5113266;28;20045;-45
2021/12/25 08:29:14;;;;;;;1.53;0.87;;;-3273.80;79.50;;;;;;5113238;28;20044;-44
2021/12/25 08:31:41;;;;;;;2.00;0.60;;;-3273.80;79.30;;;;;;5091918;28;20047;-46
2021/12/25 08:34:08;;;;;;;4.70;0.93;;;-3273.90;78.90;;;;;;5096414;28;20322;-47
2021/12/25 08:36:35;;;;;;;3.95;1.15;;;-3274.00;79.30;;;;;;5113382;28;20193;-47
2021/12/25 08:39:05;;;;;;;2.38;0.98;;;-3273.90;79.00;;;;;;5109967;28;20032;-45
2021/12/25 08:41:31;;;;;;;3.58;1.10;;;-3273.90;79.10;;;;;;5114313;28;20357;-49
2021/12/25 08:44:06;;;;;;;3.08;0.85;;;-3274.00;79.60;;;;;;5111003;28;20043;-47
2021/12/25 08:46:54;;;;;;;4.15;0.90;;;-3274.00;79.70;;;;;;5076419;28;20035;-48
2021/12/25 08:49:24;;;;;;;4.18;1.00;;;-3274.00;79.50;;;;;;5095360;28;20089;-47
2021/12/25 08:51:55;;;;;;;2.92;0.82;;;-3274.10;79.30;;;;;;5113217;28;20027;-46
2021/12/25 08:54:23;;;;;;;3.85;0.70;;;-3274.20;79.50;;;;;;5113695;28;20034;-48
2021/12/25 08:56:49;;;;;;;4.32;0.80;;;-3274.30;79.20;;;;;;5113404;27;20059;-47
2021/12/25 08:59:16;;;;;;;5.05;1.08;;;-3274.40;79.00;;;;;;5093500;28;20032;-46
2021/12/25 09:01:46;;;;;;;3.33;0.93;;;-3274.50;79.00;;;;;;5095157;28;20035;-45
2021/12/25 09:04:14;;;;;;;4.43;1.08;;;-3274.60;78.40;;;;;;5113168;28;20027;-43
2021/12/25 09:06:40;;;;;;;2.90;1.17;;;-3274.80;78.30;;;;;;5113584;28;20031;-46
2021/12/25 09:09:08;;;;;;;1.50;0.75;;;-3274.80;78.70;;;;;;5113571;28;20102;-47
2021/12/25 09:11:36;;;;;;;3.67;0.93;;;-3275.00;78.20;;;;;;5090051;28;20498;-47
2021/12/25 09:14:04;;;;;;;5.68;1.83;;;-3275.00;78.10;;;;;;5095364;28;20084;-48
2021/12/25 09:16:34;;;;;;;4.10;1.48;;;-3275.20;78.00;;;;;;5113450;28;20102;-49
2021/12/25 09:19:03;;;;;;;5.53;1.58;;;-3275.30;77.60;;;;;;5113136;28;20036;-45
2021/12/25 09:21:30;;;;;;;2.55;0.95;;;-3275.30;77.30;;;;;;5104726;28;20149;-45
2021/12/25 09:23:59;;;;;;;2.85;1.60;;;-3275.30;77.50;;;;;;5105093;28;20040;-45
2021/12/25 09:26:26;;;;;;;3.80;0.90;;;-3275.30;77.80;;;;;;5110372;28;20036;-45
2021/12/25 09:28:53;;;;;;;2.80;1.13;;;-3275.20;77.90;;;;;;5108993;28;20027;-45
2021/12/25 09:31:21;;;;;;;6.05;1.42;;;-3275.20;77.80;;;;;;5112628;28;20043;-44
2021/12/25 09:33:47;;;;;;;16.58;1.83;;;-3275.20;77.90;;;;;;5094974;28;20501;-44
2021/12/25 09:36:13;;;;;;;3.90;1.20;;;-3275.20;78.10;;;;;;5113779;28;20039;-48
2021/12/25 09:38:40;;;;;;;3.40;1.20;;;-3275.20;78.30;;;;;;5107134;28;20034;-47
2021/12/25 09:41:06;;;;;;;3.20;1.30;;;-3275.30;78.30;;;;;;5095273;28;20078;-45
2021/12/25 09:43:33;;;;;;;3.65;2.72;;;-3275.30;78.40;;;;;;5111139;28;20035;-48
2021/12/25 09:46:00;;;;;;;4.32;2.35;;;-3275.30;78.00;;;;;;5094859;28;20028;-48
2021/12/25 09:48:27;;;;;;;5.03;1.98;;;-3275.30;78.10;;;;;;5104193;28;20460;-44
2021/12/25 09:50:54;;;;;;;8.10;3.20;;;-3275.40;78.10;;;;;;5113714;28;20031;-44
2021/12/25 09:53:22;;;;;;;14.07;6.93;;;-3275.40;77.40;;;;;;5085035;28;20115;-49
2021/12/25 09:55:51;;;;;;;6.53;3.70;;;-3275.50;77.50;;;;;;5094691;28;20032;-47
2021/12/25 09:58:18;;;;;;;;;;;-3275.60;77.10;;;;;;5118902;28;20039;-44
2021/12/25 10:00:47;;;;;;;3.72;1.27;;;-3275.70;76.90;;;;;;5078704;28;19912;-49
2021/12/25 10:03:14;;;;;;;5.50;1.20;;;-3275.70;76.10;;;;;;5071074;28;20088;-45
2021/12/25 10:05:45;;;;;;;3.60;1.10;;;-3275.70;74.60;;;;;;5095568;28;20047;-45
2021/12/25 10:08:17;;;;;;;2.40;0.93;;;-3275.70;74.20;;;;;;5109992;28;20028;-46
2021/12/25 10:10:51;;;;;;;1.92;1.52;;;-3275.70;73.90;;;;;;5100009;28;20357;-48
2021/12/25 10:13:35;;;;;;;2.85;1.20;;;-3275.70;72.90;;;;;;5105065;28;20047;-44
2021/12/25 10:16:26;;;;;;;4.90;1.98;;;-3275.70;73.50;;;;;;5102039;28;20365;-45
2021/12/25 10:19:10;;;;;;;2.53;1.25;;;-3275.60;73.00;;;;;;5103150;28;20448;-45
2021/12/25 10:21:40;;;;;;;3.78;1.40;;;-3275.60;72.60;;;;;;5094936;28;20036;-44
2021/12/25 10:24:17;;;;;;;2.55;0.95;;;-3275.60;72.40;;;;;;5079710;28;20101;-43
2021/12/25 10:26:47;;;;;;;4.32;1.23;;;-3275.60;72.70;;;;;;5108804;28;20536;-47
2021/12/25 10:29:31;;;;;;;4.75;1.20;;;-3275.50;72.70;;;;;;5105442;28;20031;-44
2021/12/25 10:32:12;;;;;;;6.00;3.17;;;-3275.60;73.30;;;;;;5094482;28;20352;-47
2021/12/25 10:34:39;;;;;;;7.15;1.25;;;-3275.60;72.60;;;;;;5113318;28;20026;-48
2021/12/25 10:37:12;;;;;;;4.00;1.58;;;-3275.60;72.30;;;;;;5093675;28;20458;-43
2021/12/25 10:39:42;;;;;;;7.40;1.42;;;-3275.60;72.10;;;;;;5095026;28;20067;-45
2021/12/25 10:42:13;;;;;;;4.93;1.00;;;-3275.60;72.20;;;;;;5102818;28;20047;-47
2021/12/25 10:44:52;;;;;;;2.55;1.17;;;-3275.70;72.30;;;;;;5098953;28;20456;-46
2021/12/25 10:47:24;;;;;;;6.07;1.08;;;-3275.70;72.10;;;;;;5107878;28;20047;-48
2021/12/25 10:49:56;;;;;;;2.78;1.08;;;-3275.60;71.90;;;;;;5097815;28;20031;-48
2021/12/25 10:52:29;;;;;;;5.50;1.20;;;-3275.70;72.20;;;;;;5087462;28;20105;-46
2021/12/25 10:55:08;;;;;;;3.25;1.25;;;-3275.70;71.30;;;;;;5109680;28;20453;-44
2021/12/25 10:57:45;;;;;;;3.00;0.82;;;-3275.80;70.50;;;;;;5117393;27;20032;-48
2021/12/25 11:00:31;;;;;;;1.70;0.80;;;-3275.70;70.60;;;;;;5113002;28;20043;-47
2021/12/25 11:03:09;;;;;;;1.90;1.13;;;-3275.80;70.70;;;;;;5116529;28;20020;-43
2021/12/25 11:05:43;;;;;;;2.67;0.98;;;-3275.70;70.70;;;;;;5097379;28;20049;-45
2021/12/25 11:08:16;;;;;;;5.93;1.08;;;-3275.80;70.10;;;;;;5112618;28;20039;-46
2021/12/25 11:10:50;;;;;;;2.88;0.68;;;-3275.80;70.40;;;;;;5114786;28;20023;-43
2021/12/25 11:13:41;;;;;;;3.38;1.27;;;-3275.80;70.80;;;;;;5110384;28;20055;-45
2021/12/25 11:16:27;;;;;;;4.28;1.25;;;-3275.90;71.10;;;;;;5116035;28;20081;-45
2021/12/25 11:19:09;;;;;;;4.90;1.00;;;-3275.90;71.00;;;;;;5098082;28;20036;-45
2021/12/25 11:21:54;;;;;;;2.45;1.10;;;-3275.90;70.70;;;;;;5109687;28;20047;-46
2021/12/25 11:24:32;;;;;;;3.28;1.35;;;-3275.90;70.80;;;;;;5114255;28;20023;-43
2021/12/25 11:27:04;;;;;;;8.20;1.25;;;-3275.90;70.50;;;;;;5115533;28;20136;-48
2021/12/25 11:29:34;;;;;;;5.47;1.27;;;-3275.90;70.40;;;;;;5112223;28;20461;-44
2021/12/25 11:32:04;;;;;;;3.75;1.58;;;-3276.00;70.70;;;;;;5111446;28;20027;-45
2021/12/25 11:34:31;;;;;;;4.03;0.95;;;-3276.00;70.90;;;;;;5104825;28;20168;-48
2021/12/25 11:37:00;;;;;;;7.88;1.65;;;-3276.00;70.90;;;;;;5098130;28;20031;-45
2021/12/25 11:39:29;;;;;;;3.42;1.20;;;-3276.10;70.20;;;;;;5097334;28;20024;-47
2021/12/25 11:42:01;;;;;;;6.70;1.40;;;-3276.00;70.20;;;;;;5105297;28;20123;-46
2021/12/25 11:44:45;;;;;;;4.95;1.35;;;-3276.10;70.10;;;;;;5096553;28;20745;-47
2021/12/25 11:47:29;;;;;;;5.22;1.42;;;-3276.10;70.50;;;;;;5113291;28;20106;-47
2021/12/25 11:49:58;;;;;;;6.72;1.40;;;-3276.10;70.30;;;;;;5096803;28;20031;-44
2021/12/25 11:52:35;;;;;;;5.25;1.10;;;-3276.10;70.20;;;;;;5114147;28;20077;-47
2021/12/25 11:58:52;;;;;;;5.65;1.77;;;-3276.10;69.50;;;;;;5023961;28;20045;-48
2021/12/25 12:02:02;;;;;;;7.50;2.40;;;-3276.10;70.60;;;;;;5094646;28;20038;-44
2021/12/25 12:04:30;;;;;;;6.95;2.08;;;-3276.20;70.90;;;;;;5099214;28;20082;-45
2021/12/25 12:07:18;;;;;;;4.57;1.42;;;-3276.20;71.20;;;;;;5095030;28;20119;-45
2021/12/25 12:10:03;;;;;;;4.68;1.58;;;-3276.20;70.30;;;;;;5109810;28;20028;-49
2021/12/25 12:12:30;;;;;;;3.92;1.52;;;-3276.30;70.60;;;;;;5081032;28;20063;-44
2021/12/25 12:15:16;;;;;;;3.35;1.40;;;-3276.30;69.80;;;;;;5059670;28;20024;-46
2021/12/25 12:18:20;;;;;;;9.13;1.85;;;-3276.30;70.70;;;;;;5076094;27;20092;-45
2021/12/25 12:20:45;;;;;;;3.35;1.25;;;-3276.40;69.90;;;;;;5095948;28;20032;-44
2021/12/25 12:26:53;;;;;;;2.45;0.93;;;-3276.40;68.80;;;;;;5008261;28;20036;-46
2021/12/25 12:29:57;;;;;;;2.03;1.05;;;-3276.30;68.10;;;;;;5002059;28;20058;-43
2021/12/25 12:32:43;;;;;;;4.15;1.00;;;-3276.30;67.80;;;;;;4986042;28;21654;-47
2021/12/25 12:35:32;;;;;;;2.45;1.00;;;-3276.30;68.50;;;;;;4991061;28;20037;-46
2021/12/25 12:38:39;;;;;;;4.20;1.20;;;-3276.30;68.70;;;;;;5007872;28;20061;-47
2021/12/25 12:41:16;;;;;;;4.05;1.27;;;-3276.30;69.30;;;;;;4997000;28;20044;-45
2021/12/25 12:44:03;;;;;;;2.95;1.02;;;-3276.30;68.80;;;;;;4989294;28;20810;-45
2021/12/25 12:46:53;;;;;;;4.85;1.10;;;-3276.30;68.30;;;;;;4991300;28;20053;-45
2021/12/25 12:49:52;;;;;;;3.13;0.80;;;-3276.30;68.50;;;;;;4983032;28;20061;-44
2021/12/25 12:52:39;;;;;;;5.57;1.10;;;-3276.30;69.20;;;;;;4989844;28;20039;-44
2021/12/25 12:55:34;;;;;;;3.85;1.13;;;-3276.30;69.90;;;;;;4972780;28;20136;-45
2021/12/25 12:58:19;;;;;;;7.50;1.55;;;-3276.30;69.20;;;;;;4975250;28;20049;-43
2021/12/25 13:01:00;;;;;;;2.40;1.10;;;-3276.30;69.30;;;;;;5041308;28;20369;-45
2021/12/25 13:03:31;;;;;;;5.07;1.65;;;-3276.30;69.50;;;;;;5083160;28;20039;-45
2021/12/25 13:06:10;;;;;;;7.07;2.65;;;-3276.30;68.70;;;;;;5081856;28;20171;-45
2021/12/25 13:08:39;;;;;;;6.95;1.80;;;-3276.30;68.60;;;;;;5082260;28;20020;-44
2021/12/25 13:11:25;;;;;;;4.55;1.58;;;-3276.30;69.50;;;;;;5055730;28;20118;-45
2021/12/25 13:13:56;;;;;;;7.85;1.23;;;-3276.30;69.80;;;;;;5091938;28;20120;-48
2021/12/25 13:16:27;;;;;;;3.15;1.10;;;-3276.30;69.40;;;;;;5087943;28;20032;-44
2021/12/25 13:18:57;;;;;;;8.57;2.05;;;-3276.20;69.20;;;;;;5091771;28;20122;-45
2021/12/25 13:21:27;;;;;;;6.72;1.75;;;-3276.30;69.90;;;;;;5091381;28;20055;-47
2021/12/25 13:24:09;;;;;;;3.35;1.40;;;-3276.20;70.00;;;;;;5092921;28;20032;-46
2021/12/25 13:26:41;;;;;;;3.10;1.42;;;-3276.20;70.00;;;;;;5091419;28;20029;-46
2021/12/25 13:29:11;;;;;;;3.55;1.92;;;-3276.20;70.00;;;;;;5081013;28;20046;-49
2021/12/25 13:31:40;;;;;;;4.88;1.83;;;-3276.20;70.00;;;;;;5083433;28;20107;-44
2021/12/25 13:34:15;;;;;;;3.17;1.20;;;-3276.20;69.70;;;;;;5081200;28;20110;-49
2021/12/25 13:36:50;;;;;;;3.28;1.10;;;-3276.10;69.80;;;;;;5078872;28;20033;-48
2021/12/25 13:39:24;;;;;;;2.63;1.20;;;-3276.10;69.90;;;;;;5081023;28;20139;-48
2021/12/25 13:42:11;;;;;;;2.80;1.30;;;-3276.10;70.60;;;;;;5096233;28;20493;-46
2021/12/25 13:44:40;;;;;;;2.20;1.05;;;-3276.10;69.90;;;;;;5099903;28;20349;-47
2021/12/25 13:47:25;;;;;;;3.50;1.08;;;-3276.10;70.60;;;;;;5107104;28;20069;-45
2021/12/25 13:49:55;;;;;;;4.22;1.02;;;-3276.10;70.70;;;;;;5107890;28;20368;-44
2021/12/25 13:52:29;;;;;;;4.68;1.42;;;-3276.10;71.00;;;;;;5099291;28;20081;-45
2021/12/25 13:54:54;;;;;;;3.50;1.50;;;-3276.10;70.80;;;;;;5112856;28;20023;-47
2021/12/25 13:57:21;;;;;;;6.60;1.98;;;-3276.00;70.90;;;;;;5109996;28;20341;-48
2021/12/25 13:59:53;;;;;;;8.13;3.85;;;-3276.00;71.30;;;;;;5092554;28;20353;-46
2021/12/25 14:02:21;;;;;;;4.18;2.05;;;-3276.00;71.10;;;;;;5098704;28;20046;-44
2021/12/25 14:04:52;;;;;;;6.57;1.65;;;-3275.90;70.70;;;;;;5100989;28;20461;-44